Share

Helton, KY

White Rocks View (KVAROSEH1) Elev 1440 ft | 36.65 °N, 83.40 °W | Change Station

Current weather conditions updated 4 seconds ago

Clear
Clear
50.7 °F
Feels Like 50.7 °F
N
2.0
Wind Variable Wind from North
Gusts 2.0 mph
Sunrise 6:56 AM
Sunset 8:09 PM
Moon Waning Gibbous

Tomorrow is forecast to be nearly the same temperature as today.

Pressure 30.29 in
Visibility 10.0 miles
Clouds Clear
Dew Point 34 °F
Humidity 53%
Rainfall 0.00 in
Snow Depth Not available.
UV 0 out of 16
Pollen 9.80 out of 12
Air Quality Not available.
Flu Activity Sporadic
METAR K1A6 180015Z AUTO 25003KT 10SM CLR 16/M01 A3029 RMK AO2 T01591012

More Conditions Fewer Conditions

Pressure 30.29 in
Visibility 10.0 miles
Clouds Clear
Dew Point 34 °F
Humidity 53%
Rainfall 0.00 in
Snow Depth Not available.
UV 0 out of 16
Pollen 9.80 out of 12
Air Quality Not available.
Flu Activity Sporadic
METAR K1A6 180015Z AUTO 25003KT 10SM CLR 16/M01 A3029 RMK AO2 T01591012

More Conditions Fewer Conditions

10-Day Forecast

Almanac

Astronomy

Apr. 17, 2014 Rise Set
Actual Time 6:56 AM EDT 8:09 PM EDT
Civil Twilight 6:29 AM EDT 8:36 PM EDT
Nautical Twilight 5:57 AM EDT 9:08 PM EDT
Astronomical Twilight 5:24 AM EDT 9:42 PM EDT
Moon 10:51 PM EDT (4/17) 8:30 AM EDT (4/17)
Length of Visible Light 14h 06m
Length of Day
13h 13m
Tomorrow will be 2m 13s longer.
Waning Gibbous, 92% of the Moon is Illuminated
Today
Waning Gibbous
Apr 22
Last Quarter
Apr 29
New
May 6
First Quarter
May 14
Full

Today's Extremes

State Highs State Lows

Community

  • Morning Light
    Morning Light
  • New Day
    New Day
  • Lake Michigan Sunrise
    Lake Michigan Sunrise
  • sunset from izmir, narlıdere
    sunset from izmir, narlıdere
  • oregon cherry
    oregon cherry

WunderPhotos

Upload Photos

1,702,188 photos uploaded!

WunderBlogs® & News

Nearby

Snow Depth

Station Depth Elevation
No new snow has been reported.

Coastal Water Temperatures

Place Temperature
No Stations Reporting

Earthquake Activity

City Distance Mag. Time & Date
Englewood, Tennessee 116 miles 2.8 10:34 PM EDT
2014-04-12
Minimum magnitude displayed is 2.5.

Nearby Weather Stations

Station Location Temp. Heat Index Dew Point Humidity Wind Precip. Elev Updated Type
White Rocks View, Rose Hill, VA 50.7 °F - 34 °F 53% North  at  2.0 mph 0.00 in / hr 1440 ft 8:38 PM EDT Normal
Colmar, Middlesboro, KY 56.1 °F - 40 °F 55% South  at  0.0 mph - / hr 1270 ft 8:35 PM EDT Normal
RAWS PEABODY KY, Big Creek, KY 72 °F 73 °F 17 °F 12% SSE  at  3 mph 0.00 in / hr 1464 ft 7:01 PM EDT MADIS
KYMN Harlan 24 E KY, Lynch, KY 53 °F - 14 °F 21% SSE  at  4 mph 0.00 in / hr 4031 ft 8:00 PM EDT MADIS

Show More Stations Show Fewer Stations

What do you think?

We're not finished. Please let us know what you like, what you don't like, and what you are still missing.